sensor_id;sensor_type;location;lat;lon;timestamp;temperature;humidity
32187;DHT22;18686;53.084;8.872;2022-08-04T00:01:20;19.50;99.90
32187;DHT22;18686;53.084;8.872;2022-08-04T00:03:54;19.40;99.90
32187;DHT22;18686;53.084;8.872;2022-08-04T00:06:37;19.40;99.90
32187;DHT22;18686;53.084;8.872;2022-08-04T00:09:12;19.40;99.90
32187;DHT22;18686;53.084;8.872;2022-08-04T00:11:44;19.30;99.90
32187;DHT22;18686;53.084;8.872;2022-08-04T00:14:14;19.30;99.90
32187;DHT22;18686;53.084;8.872;2022-08-04T00:16:45;19.30;99.90
32187;DHT22;18686;53.084;8.872;2022-08-04T00:19:17;19.30;99.90
32187;DHT22;18686;53.084;8.872;2022-08-04T00:21:54;19.30;99.90
32187;DHT22;18686;53.084;8.872;2022-08-04T00:24:23;19.20;99.90
32187;DHT22;18686;53.084;8.872;2022-08-04T00:26:52;19.30;99.90
32187;DHT22;18686;53.084;8.872;2022-08-04T00:29:21;19.30;99.90
32187;DHT22;18686;53.084;8.872;2022-08-04T00:31:50;19.20;99.90
32187;DHT22;18686;53.084;8.872;2022-08-04T00:34:25;19.20;99.90
32187;DHT22;18686;53.084;8.872;2022-08-04T00:36:56;19.20;99.90
32187;DHT22;18686;53.084;8.872;2022-08-04T00:39:25;19.10;99.90
32187;DHT22;18686;53.084;8.872;2022-08-04T00:42:14;19.10;99.90
32187;DHT22;18686;53.084;8.872;2022-08-04T00:45:02;19.10;99.90
32187;DHT22;18686;53.084;8.872;2022-08-04T00:47:43;19.10;99.90
32187;DHT22;18686;53.084;8.872;2022-08-04T00:50:26;19.00;99.90
32187;DHT22;18686;53.084;8.872;2022-08-04T00:53:06;19.00;99.90
32187;DHT22;18686;53.084;8.872;2022-08-04T00:55:50;19.00;99.90
32187;DHT22;18686;53.084;8.872;2022-08-04T00:58:38;19.00;99.90
32187;DHT22;18686;53.084;8.872;2022-08-04T01:01:19;19.10;99.90
32187;DHT22;18686;53.084;8.872;2022-08-04T01:03:53;19.10;99.90
32187;DHT22;18686;53.084;8.872;2022-08-04T01:06:35;19.10;99.90
32187;DHT22;18686;53.084;8.872;2022-08-04T01:09:26;19.10;99.90
32187;DHT22;18686;53.084;8.872;2022-08-04T01:12:14;19.10;99.90
32187;DHT22;18686;53.084;8.872;2022-08-04T01:14:50;19.10;99.90
32187;DHT22;18686;53.084;8.872;2022-08-04T01:17:27;19.10;99.90
32187;DHT22;18686;53.084;8.872;2022-08-04T01:20:02;19.10;99.90
32187;DHT22;18686;53.084;8.872;2022-08-04T01:26:01;19.10;99.90
32187;DHT22;18686;53.084;8.872;2022-08-04T01:29:07;19.20;99.90
32187;DHT22;18686;53.084;8.872;2022-08-04T01:31:49;19.10;99.90
32187;DHT22;18686;53.084;8.872;2022-08-04T01:34:22;19.10;99.90
32187;DHT22;18686;53.084;8.872;2022-08-04T01:36:57;19.10;99.90
32187;DHT22;18686;53.084;8.872;2022-08-04T01:39:34;19.00;99.90
32187;DHT22;18686;53.084;8.872;2022-08-04T01:42:09;19.00;99.90
32187;DHT22;18686;53.084;8.872;2022-08-04T01:44:40;18.90;99.90
32187;DHT22;18686;53.084;8.872;2022-08-04T01:47:08;18.90;99.90
32187;DHT22;18686;53.084;8.872;2022-08-04T01:49:37;18.90;99.90
32187;DHT22;18686;53.084;8.872;2022-08-04T01:52:08;18.80;99.90
32187;DHT22;18686;53.084;8.872;2022-08-04T01:54:40;18.80;99.90
32187;DHT22;18686;53.084;8.872;2022-08-04T01:57:09;18.70;99.90
32187;DHT22;18686;53.084;8.872;2022-08-04T02:00:00;18.70;99.90
32187;DHT22;18686;53.084;8.872;2022-08-04T02:02:29;18.70;99.90
32187;DHT22;18686;53.084;8.872;2022-08-04T02:04:59;18.60;99.90
32187;DHT22;18686;53.084;8.872;2022-08-04T02:07:37;18.60;99.90
32187;DHT22;18686;53.084;8.872;2022-08-04T02:10:15;18.60;99.90
32187;DHT22;18686;53.084;8.872;2022-08-04T02:12:54;18.60;99.90
32187;DHT22;18686;53.084;8.872;2022-08-04T02:15:29;18.60;99.90
32187;DHT22;18686;53.084;8.872;2022-08-04T02:18:22;18.50;99.90
32187;DHT22;18686;53.084;8.872;2022-08-04T02:20:56;18.50;99.90
32187;DHT22;18686;53.084;8.872;2022-08-04T02:23:30;18.50;99.90
32187;DHT22;18686;53.084;8.872;2022-08-04T02:26:04;18.50;99.90
32187;DHT22;18686;53.084;8.872;2022-08-04T02:28:44;18.50;99.90
32187;DHT22;18686;53.084;8.872;2022-08-04T02:31:22;18.50;99.90
32187;DHT22;18686;53.084;8.872;2022-08-04T02:34:00;18.50;99.90
32187;DHT22;18686;53.084;8.872;2022-08-04T02:36:35;18.50;99.90
32187;DHT22;18686;53.084;8.872;2022-08-04T02:39:05;18.50;99.90
32187;DHT22;18686;53.084;8.872;2022-08-04T02:41:34;18.50;99.90
32187;DHT22;18686;53.084;8.872;2022-08-04T02:44:04;18.50;99.90
32187;DHT22;18686;53.084;8.872;2022-08-04T02:46:36;18.40;99.90
32187;DHT22;18686;53.084;8.872;2022-08-04T02:49:06;18.50;99.90
32187;DHT22;18686;53.084;8.872;2022-08-04T02:51:36;18.50;99.90
32187;DHT22;18686;53.084;8.872;2022-08-04T02:54:07;18.50;99.90
32187;DHT22;18686;53.084;8.872;2022-08-04T02:56:37;18.50;99.90
32187;DHT22;18686;53.084;8.872;2022-08-04T02:59:08;18.40;99.90
32187;DHT22;18686;53.084;8.872;2022-08-04T03:01:39;18.40;99.90
32187;DHT22;18686;53.084;8.872;2022-08-04T03:04:44;18.40;99.90
32187;DHT22;18686;53.084;8.872;2022-08-04T03:07:40;18.40;99.90
32187;DHT22;18686;53.084;8.872;2022-08-04T03:10:29;18.40;99.90
32187;DHT22;18686;53.084;8.872;2022-08-04T03:13:35;18.40;99.90
32187;DHT22;18686;53.084;8.872;2022-08-04T03:16:46;18.40;99.90
32187;DHT22;18686;53.084;8.872;2022-08-04T03:26:00;18.30;99.90
32187;DHT22;18686;53.084;8.872;2022-08-04T03:32:28;18.30;99.90
32187;DHT22;18686;53.084;8.872;2022-08-04T03:35:25;18.30;99.90
32187;DHT22;18686;53.084;8.872;2022-08-04T03:41:23;18.40;99.90
32187;DHT22;18686;53.084;8.872;2022-08-04T03:44:42;18.40;99.90
32187;DHT22;18686;53.084;8.872;2022-08-04T03:47:46;18.40;99.90
32187;DHT22;18686;53.084;8.872;2022-08-04T03:50:47;18.40;99.90
32187;DHT22;18686;53.084;8.872;2022-08-04T03:54:10;18.40;99.90
32187;DHT22;18686;53.084;8.872;2022-08-04T03:57:01;18.50;99.90
32187;DHT22;18686;53.084;8.872;2022-08-04T04:00:06;18.50;99.90
32187;DHT22;18686;53.084;8.872;2022-08-04T04:03:07;18.50;99.90
32187;DHT22;18686;53.084;8.872;2022-08-04T04:06:45;18.50;99.90
32187;DHT22;18686;53.084;8.872;2022-08-04T04:12:50;18.60;99.90
32187;DHT22;18686;53.084;8.872;2022-08-04T04:15:46;18.70;99.90
32187;DHT22;18686;53.084;8.872;2022-08-04T04:18:26;18.80;99.90
32187;DHT22;18686;53.084;8.872;2022-08-04T04:26:54;19.10;99.90
32187;DHT22;18686;53.084;8.872;2022-08-04T04:29:54;19.20;99.90
32187;DHT22;18686;53.084;8.872;2022-08-04T04:32:33;19.30;99.90
32187;DHT22;18686;53.084;8.872;2022-08-04T04:35:25;19.50;99.90
32187;DHT22;18686;53.084;8.872;2022-08-04T04:41:20;19.80;99.90
32187;DHT22;18686;53.084;8.872;2022-08-04T04:44:11;19.90;99.90
32187;DHT22;18686;53.084;8.872;2022-08-04T04:46:46;20.00;99.90
32187;DHT22;18686;53.084;8.872;2022-08-04T04:49:24;20.20;99.90
32187;DHT22;18686;53.084;8.872;2022-08-04T04:52:04;20.20;99.90
32187;DHT22;18686;53.084;8.872;2022-08-04T04:54:37;20.30;99.90
32187;DHT22;18686;53.084;8.872;2022-08-04T04:57:10;20.40;99.90
32187;DHT22;18686;53.084;8.872;2022-08-04T04:59:55;20.40;99.90
32187;DHT22;18686;53.084;8.872;2022-08-04T05:02:40;20.60;99.90
32187;DHT22;18686;53.084;8.872;2022-08-04T05:05:40;20.60;99.90
32187;DHT22;18686;53.084;8.872;2022-08-04T05:08:37;20.80;99.90
32187;DHT22;18686;53.084;8.872;2022-08-04T05:11:29;20.90;99.90
32187;DHT22;18686;53.084;8.872;2022-08-04T05:14:06;21.10;99.90
32187;DHT22;18686;53.084;8.872;2022-08-04T05:17:02;21.30;99.90
32187;DHT22;18686;53.084;8.872;2022-08-04T05:19:39;21.40;99.90
32187;DHT22;18686;53.084;8.872;2022-08-04T05:22:19;21.50;99.90
32187;DHT22;18686;53.084;8.872;2022-08-04T05:25:18;21.60;99.90
32187;DHT22;18686;53.084;8.872;2022-08-04T05:27:50;21.70;99.90
32187;DHT22;18686;53.084;8.872;2022-08-04T05:30:25;21.80;99.90
32187;DHT22;18686;53.084;8.872;2022-08-04T05:32:59;21.80;99.90
32187;DHT22;18686;53.084;8.872;2022-08-04T05:35:33;21.90;99.90
32187;DHT22;18686;53.084;8.872;2022-08-04T05:38:26;21.90;99.90
32187;DHT22;18686;53.084;8.872;2022-08-04T05:40:58;22.00;99.90
32187;DHT22;18686;53.084;8.872;2022-08-04T05:43:27;22.20;99.90
32187;DHT22;18686;53.084;8.872;2022-08-04T05:45:55;22.20;99.90
32187;DHT22;18686;53.084;8.872;2022-08-04T05:48:26;22.30;99.90
32187;DHT22;18686;53.084;8.872;2022-08-04T05:50:54;22.40;99.90
32187;DHT22;18686;53.084;8.872;2022-08-04T05:53:27;22.50;99.90
32187;DHT22;18686;53.084;8.872;2022-08-04T05:55:58;22.60;99.90
32187;DHT22;18686;53.084;8.872;2022-08-04T05:58:28;22.70;99.90
32187;DHT22;18686;53.084;8.872;2022-08-04T06:00:58;22.90;99.90
32187;DHT22;18686;53.084;8.872;2022-08-04T06:03:28;23.00;99.90
32187;DHT22;18686;53.084;8.872;2022-08-04T06:05:57;23.20;99.90
32187;DHT22;18686;53.084;8.872;2022-08-04T06:08:27;23.30;99.90
32187;DHT22;18686;53.084;8.872;2022-08-04T06:10:58;23.40;99.90
32187;DHT22;18686;53.084;8.872;2022-08-04T06:13:32;23.40;99.90
32187;DHT22;18686;53.084;8.872;2022-08-04T06:16:20;23.60;99.90
32187;DHT22;18686;53.084;8.872;2022-08-04T06:18:58;23.70;99.90
32187;DHT22;18686;53.084;8.872;2022-08-04T06:21:49;23.70;99.90
32187;DHT22;18686;53.084;8.872;2022-08-04T06:24:20;24.00;99.90
32187;DHT22;18686;53.084;8.872;2022-08-04T06:26:51;24.30;99.90
32187;DHT22;18686;53.084;8.872;2022-08-04T06:29:20;24.60;99.90
32187;DHT22;18686;53.084;8.872;2022-08-04T06:31:53;25.00;99.90
32187;DHT22;18686;53.084;8.872;2022-08-04T06:34:46;25.20;99.90
32187;DHT22;18686;53.084;8.872;2022-08-04T06:37:14;25.40;99.70
32187;DHT22;18686;53.084;8.872;2022-08-04T06:40:04;25.70;99.30
32187;DHT22;18686;53.084;8.872;2022-08-04T06:42:56;26.10;98.40
32187;DHT22;18686;53.084;8.872;2022-08-04T06:45:24;26.30;96.30
32187;DHT22;18686;53.084;8.872;2022-08-04T06:47:53;26.50;95.00
32187;DHT22;18686;53.084;8.872;2022-08-04T06:50:24;26.90;95.60
32187;DHT22;18686;53.084;8.872;2022-08-04T06:53:13;27.30;93.50
32187;DHT22;18686;53.084;8.872;2022-08-04T06:55:43;27.80;91.30
32187;DHT22;18686;53.084;8.872;2022-08-04T06:58:14;28.30;90.00
32187;DHT22;18686;53.084;8.872;2022-08-04T07:00:44;28.40;81.20
32187;DHT22;18686;53.084;8.872;2022-08-04T07:03:13;28.60;79.60
32187;DHT22;18686;53.084;8.872;2022-08-04T07:05:42;29.00;79.30
32187;DHT22;18686;53.084;8.872;2022-08-04T07:08:13;29.40;72.60
32187;DHT22;18686;53.084;8.872;2022-08-04T07:10:42;29.50;72.00
32187;DHT22;18686;53.084;8.872;2022-08-04T07:13:13;29.80;70.20
32187;DHT22;18686;53.084;8.872;2022-08-04T07:15:45;30.30;66.60
32187;DHT22;18686;53.084;8.872;2022-08-04T07:18:13;31.60;64.30
32187;DHT22;18686;53.084;8.872;2022-08-04T07:20:42;32.70;57.50
32187;DHT22;18686;53.084;8.872;2022-08-04T07:23:11;33.80;53.70
32187;DHT22;18686;53.084;8.872;2022-08-04T07:25:49;34.80;52.30
32187;DHT22;18686;53.084;8.872;2022-08-04T07:28:40;36.10;49.60
32187;DHT22;18686;53.084;8.872;2022-08-04T07:31:14;37.40;45.70
32187;DHT22;18686;53.084;8.872;2022-08-04T07:34:02;37.50;45.50
32187;DHT22;18686;53.084;8.872;2022-08-04T07:37:06;37.70;42.40
32187;DHT22;18686;53.084;8.872;2022-08-04T07:39:54;37.70;43.10
32187;DHT22;18686;53.084;8.872;2022-08-04T07:42:23;37.60;42.70
32187;DHT22;18686;53.084;8.872;2022-08-04T07:44:52;37.50;41.20
32187;DHT22;18686;53.084;8.872;2022-08-04T07:47:21;36.80;43.00
32187;DHT22;18686;53.084;8.872;2022-08-04T07:49:51;36.50;43.50
32187;DHT22;18686;53.084;8.872;2022-08-04T07:52:25;36.10;43.60
32187;DHT22;18686;53.084;8.872;2022-08-04T07:54:53;35.80;44.20
32187;DHT22;18686;53.084;8.872;2022-08-04T07:57:22;35.70;45.30
32187;DHT22;18686;53.084;8.872;2022-08-04T08:00:10;36.40;43.50
32187;DHT22;18686;53.084;8.872;2022-08-04T08:02:42;37.60;42.10
32187;DHT22;18686;53.084;8.872;2022-08-04T08:05:12;38.30;39.60
32187;DHT22;18686;53.084;8.872;2022-08-04T08:07:44;37.90;38.90
32187;DHT22;18686;53.084;8.872;2022-08-04T08:10:21;37.90;39.50
32187;DHT22;18686;53.084;8.872;2022-08-04T08:12:51;38.00;39.30
32187;DHT22;18686;53.084;8.872;2022-08-04T08:15:21;38.10;38.80
32187;DHT22;18686;53.084;8.872;2022-08-04T08:17:50;37.70;39.10
32187;DHT22;18686;53.084;8.872;2022-08-04T08:20:28;38.00;39.30
32187;DHT22;18686;53.084;8.872;2022-08-04T08:22:58;37.80;38.20
32187;DHT22;18686;53.084;8.872;2022-08-04T08:25:29;38.20;38.40
32187;DHT22;18686;53.084;8.872;2022-08-04T08:27:59;37.00;37.90
32187;DHT22;18686;53.084;8.872;2022-08-04T08:30:31;37.10;38.50
32187;DHT22;18686;53.084;8.872;2022-08-04T08:33:05;38.00;38.30
32187;DHT22;18686;53.084;8.872;2022-08-04T08:35:44;40.00;37.30
32187;DHT22;18686;53.084;8.872;2022-08-04T08:38:33;41.70;34.80
32187;DHT22;18686;53.084;8.872;2022-08-04T08:47:24;41.60;33.20
32187;DHT22;18686;53.084;8.872;2022-08-04T08:50:36;42.40;32.80
32187;DHT22;18686;53.084;8.872;2022-08-04T08:53:19;41.50;32.20
32187;DHT22;18686;53.084;8.872;2022-08-04T08:56:13;40.70;33.90
32187;DHT22;18686;53.084;8.872;2022-08-04T08:58:55;39.70;34.70
32187;DHT22;18686;53.084;8.872;2022-08-04T09:01:39;40.30;34.30
32187;DHT22;18686;53.084;8.872;2022-08-04T09:04:47;41.20;34.10
32187;DHT22;18686;53.084;8.872;2022-08-04T09:07:35;41.60;32.70
32187;DHT22;18686;53.084;8.872;2022-08-04T09:10:09;42.40;32.80
32187;DHT22;18686;53.084;8.872;2022-08-04T09:12:45;44.20;31.00
32187;DHT22;18686;53.084;8.872;2022-08-04T09:15:23;46.40;30.10
32187;DHT22;18686;53.084;8.872;2022-08-04T09:17:58;47.40;28.20
32187;DHT22;18686;53.084;8.872;2022-08-04T09:20:35;47.50;28.10
32187;DHT22;18686;53.084;8.872;2022-08-04T09:23:16;46.80;28.50
32187;DHT22;18686;53.084;8.872;2022-08-04T09:25:52;46.10;28.90
32187;DHT22;18686;53.084;8.872;2022-08-04T09:28:26;46.30;28.50
32187;DHT22;18686;53.084;8.872;2022-08-04T09:31:19;46.90;28.80
32187;DHT22;18686;53.084;8.872;2022-08-04T09:33:58;46.50;28.70
32187;DHT22;18686;53.084;8.872;2022-08-04T09:36:33;46.90;28.20
32187;DHT22;18686;53.084;8.872;2022-08-04T09:39:07;46.60;27.90
32187;DHT22;18686;53.084;8.872;2022-08-04T09:41:44;48.20;28.20
32187;DHT22;18686;53.084;8.872;2022-08-04T09:44:27;48.70;26.90
32187;DHT22;18686;53.084;8.872;2022-08-04T09:47:22;48.00;26.20
32187;DHT22;18686;53.084;8.872;2022-08-04T09:50:24;47.80;27.20
32187;DHT22;18686;53.084;8.872;2022-08-04T09:53:05;48.60;26.60
32187;DHT22;18686;53.084;8.872;2022-08-04T09:55:45;49.30;26.20
32187;DHT22;18686;53.084;8.872;2022-08-04T09:58:27;50.70;26.20
32187;DHT22;18686;53.084;8.872;2022-08-04T10:01:00;51.40;25.70
32187;DHT22;18686;53.084;8.872;2022-08-04T10:03:32;53.20;24.70
32187;DHT22;18686;53.084;8.872;2022-08-04T10:06:09;54.20;24.70
32187;DHT22;18686;53.084;8.872;2022-08-04T10:08:55;55.50;24.00
32187;DHT22;18686;53.084;8.872;2022-08-04T10:11:36;56.10;23.40
32187;DHT22;18686;53.084;8.872;2022-08-04T10:14:39;56.90;23.70
32187;DHT22;18686;53.084;8.872;2022-08-04T10:17:19;57.70;22.90
32187;DHT22;18686;53.084;8.872;2022-08-04T10:19:55;57.20;22.90
32187;DHT22;18686;53.084;8.872;2022-08-04T10:22:26;57.70;23.30
32187;DHT22;18686;53.084;8.872;2022-08-04T10:25:24;58.40;22.40
32187;DHT22;18686;53.084;8.872;2022-08-04T10:28:19;56.50;22.90
32187;DHT22;18686;53.084;8.872;2022-08-04T10:30:55;55.20;23.20
32187;DHT22;18686;53.084;8.872;2022-08-04T10:33:27;54.00;23.50
32187;DHT22;18686;53.084;8.872;2022-08-04T10:36:00;54.40;23.40
32187;DHT22;18686;53.084;8.872;2022-08-04T10:38:58;55.60;23.40
32187;DHT22;18686;53.084;8.872;2022-08-04T10:41:36;55.50;22.30
32187;DHT22;18686;53.084;8.872;2022-08-04T10:44:15;56.00;22.70
32187;DHT22;18686;53.084;8.872;2022-08-04T10:46:53;56.40;22.90
32187;DHT22;18686;53.084;8.872;2022-08-04T10:49:25;57.00;22.20
32187;DHT22;18686;53.084;8.872;2022-08-04T10:52:04;58.40;22.20
32187;DHT22;18686;53.084;8.872;2022-08-04T10:54:41;59.70;21.90
32187;DHT22;18686;53.084;8.872;2022-08-04T10:57:20;59.30;21.90
32187;DHT22;18686;53.084;8.872;2022-08-04T11:00:20;58.30;21.90
32187;DHT22;18686;53.084;8.872;2022-08-04T11:02:52;57.90;21.90
32187;DHT22;18686;53.084;8.872;2022-08-04T11:05:28;57.80;21.90
32187;DHT22;18686;53.084;8.872;2022-08-04T11:08:00;56.50;21.80
32187;DHT22;18686;53.084;8.872;2022-08-04T11:10:42;56.70;22.10
32187;DHT22;18686;53.084;8.872;2022-08-04T11:13:16;55.10;22.40
32187;DHT22;18686;53.084;8.872;2022-08-04T11:15:56;56.40;22.30
32187;DHT22;18686;53.084;8.872;2022-08-04T11:18:34;56.10;22.20
32187;DHT22;18686;53.084;8.872;2022-08-04T11:21:11;56.30;22.50
32187;DHT22;18686;53.084;8.872;2022-08-04T11:23:47;56.30;22.20
32187;DHT22;18686;53.084;8.872;2022-08-04T11:26:27;56.20;22.30
32187;DHT22;18686;53.084;8.872;2022-08-04T11:32:02;53.70;22.70
32187;DHT22;18686;53.084;8.872;2022-08-04T11:34:33;55.50;22.80
32187;DHT22;18686;53.084;8.872;2022-08-04T11:37:14;55.90;22.50
32187;DHT22;18686;53.084;8.872;2022-08-04T11:39:49;55.70;22.20
32187;DHT22;18686;53.084;8.872;2022-08-04T11:42:20;55.00;22.30
32187;DHT22;18686;53.084;8.872;2022-08-04T11:44:54;55.40;22.10
32187;DHT22;18686;53.084;8.872;2022-08-04T11:47:28;56.20;22.70
32187;DHT22;18686;53.084;8.872;2022-08-04T11:50:02;57.80;22.30
32187;DHT22;18686;53.084;8.872;2022-08-04T11:52:33;57.70;22.00
32187;DHT22;18686;53.084;8.872;2022-08-04T11:55:06;58.30;22.20
32187;DHT22;18686;53.084;8.872;2022-08-04T11:57:35;58.80;22.20
32187;DHT22;18686;53.084;8.872;2022-08-04T12:00:08;58.30;21.90
32187;DHT22;18686;53.084;8.872;2022-08-04T12:02:49;58.90;22.70
32187;DHT22;18686;53.084;8.872;2022-08-04T12:05:27;59.60;21.70
32187;DHT22;18686;53.084;8.872;2022-08-04T12:11:08;60.40;21.70
32187;DHT22;18686;53.084;8.872;2022-08-04T12:13:45;60.80;21.40
32187;DHT22;18686;53.084;8.872;2022-08-04T12:16:23;60.50;21.40
32187;DHT22;18686;53.084;8.872;2022-08-04T12:18:57;59.80;21.30
32187;DHT22;18686;53.084;8.872;2022-08-04T12:21:34;59.10;21.50
32187;DHT22;18686;53.084;8.872;2022-08-04T12:24:05;59.60;21.70
32187;DHT22;18686;53.084;8.872;2022-08-04T12:26:39;59.80;21.70
32187;DHT22;18686;53.084;8.872;2022-08-04T12:29:13;59.40;21.70
32187;DHT22;18686;53.084;8.872;2022-08-04T12:31:47;58.80;21.80
32187;DHT22;18686;53.084;8.872;2022-08-04T12:34:23;58.50;21.80
32187;DHT22;18686;53.084;8.872;2022-08-04T12:37:01;58.70;21.80
32187;DHT22;18686;53.084;8.872;2022-08-04T12:39:31;58.80;21.70
32187;DHT22;18686;53.084;8.872;2022-08-04T12:42:02;58.50;21.50
32187;DHT22;18686;53.084;8.872;2022-08-04T12:44:36;58.40;21.20
32187;DHT22;18686;53.084;8.872;2022-08-04T12:47:09;57.00;21.10
32187;DHT22;18686;53.084;8.872;2022-08-04T12:49:58;56.30;21.70
32187;DHT22;18686;53.084;8.872;2022-08-04T12:52:30;56.10;21.60
32187;DHT22;18686;53.084;8.872;2022-08-04T12:55:22;56.10;22.40
32187;DHT22;18686;53.084;8.872;2022-08-04T12:57:52;55.60;21.90
32187;DHT22;18686;53.084;8.872;2022-08-04T13:00:26;55.50;21.80
32187;DHT22;18686;53.084;8.872;2022-08-04T13:03:05;54.60;21.70
32187;DHT22;18686;53.084;8.872;2022-08-04T13:05:38;54.80;22.00
32187;DHT22;18686;53.084;8.872;2022-08-04T13:08:09;54.80;21.90
32187;DHT22;18686;53.084;8.872;2022-08-04T13:10:40;54.90;22.20
32187;DHT22;18686;53.084;8.872;2022-08-04T13:13:15;54.80;22.40
32187;DHT22;18686;53.084;8.872;2022-08-04T13:15:53;54.10;22.30
32187;DHT22;18686;53.084;8.872;2022-08-04T13:18:27;53.60;22.60
32187;DHT22;18686;53.084;8.872;2022-08-04T13:21:12;53.20;22.40
32187;DHT22;18686;53.084;8.872;2022-08-04T13:23:50;53.20;22.40
32187;DHT22;18686;53.084;8.872;2022-08-04T13:26:49;53.10;22.50
32187;DHT22;18686;53.084;8.872;2022-08-04T13:29:24;52.40;22.40
32187;DHT22;18686;53.084;8.872;2022-08-04T13:32:17;51.50;22.60
32187;DHT22;18686;53.084;8.872;2022-08-04T13:34:51;50.70;23.20
32187;DHT22;18686;53.084;8.872;2022-08-04T13:37:24;50.50;23.50
32187;DHT22;18686;53.084;8.872;2022-08-04T13:39:54;50.30;23.60
32187;DHT22;18686;53.084;8.872;2022-08-04T13:42:25;49.70;23.60
32187;DHT22;18686;53.084;8.872;2022-08-04T13:44:56;48.70;23.90
32187;DHT22;18686;53.084;8.872;2022-08-04T13:47:28;48.10;24.30
32187;DHT22;18686;53.084;8.872;2022-08-04T13:50:12;47.20;24.60
32187;DHT22;18686;53.084;8.872;2022-08-04T13:52:43;46.40;24.90
32187;DHT22;18686;53.084;8.872;2022-08-04T13:55:19;45.50;25.20
32187;DHT22;18686;53.084;8.872;2022-08-04T13:57:52;44.90;25.90
32187;DHT22;18686;53.084;8.872;2022-08-04T14:00:24;43.90;26.90
32187;DHT22;18686;53.084;8.872;2022-08-04T14:03:00;42.90;28.40
32187;DHT22;18686;53.084;8.872;2022-08-04T14:06:06;41.60;30.50
32187;DHT22;18686;53.084;8.872;2022-08-04T14:08:51;40.30;33.20
32187;DHT22;18686;53.084;8.872;2022-08-04T14:11:22;39.00;35.90
32187;DHT22;18686;53.084;8.872;2022-08-04T14:14:20;38.10;37.60
32187;DHT22;18686;53.084;8.872;2022-08-04T14:16:58;37.00;39.70
32187;DHT22;18686;53.084;8.872;2022-08-04T14:19:27;36.30;42.70
32187;DHT22;18686;53.084;8.872;2022-08-04T14:22:03;35.60;44.10
32187;DHT22;18686;53.084;8.872;2022-08-04T14:24:31;34.90;44.60
32187;DHT22;18686;53.084;8.872;2022-08-04T14:27:00;34.40;46.90
32187;DHT22;18686;53.084;8.872;2022-08-04T14:29:36;33.90;47.70
32187;DHT22;18686;53.084;8.872;2022-08-04T14:32:06;33.50;49.20
32187;DHT22;18686;53.084;8.872;2022-08-04T14:34:42;32.80;46.10
32187;DHT22;18686;53.084;8.872;2022-08-04T14:37:15;31.80;49.50
32187;DHT22;18686;53.084;8.872;2022-08-04T14:39:48;30.70;52.30
32187;DHT22;18686;53.084;8.872;2022-08-04T14:42:42;29.70;54.80
32187;DHT22;18686;53.084;8.872;2022-08-04T14:45:32;28.70;58.70
32187;DHT22;18686;53.084;8.872;2022-08-04T14:48:02;27.70;64.10
32187;DHT22;18686;53.084;8.872;2022-08-04T14:50:35;26.90;71.00
32187;DHT22;18686;53.084;8.872;2022-08-04T14:53:10;26.10;81.60
32187;DHT22;18686;53.084;8.872;2022-08-04T14:55:42;25.60;91.10
32187;DHT22;18686;53.084;8.872;2022-08-04T14:58:16;25.60;96.10
32187;DHT22;18686;53.084;8.872;2022-08-04T15:01:07;26.00;98.40
32187;DHT22;18686;53.084;8.872;2022-08-04T15:03:40;26.60;98.50
32187;DHT22;18686;53.084;8.872;2022-08-04T15:06:20;27.00;98.50
32187;DHT22;18686;53.084;8.872;2022-08-04T15:08:52;27.30;97.70
32187;DHT22;18686;53.084;8.872;2022-08-04T15:11:21;27.50;96.30
32187;DHT22;18686;53.084;8.872;2022-08-04T15:13:50;27.50;96.40
32187;DHT22;18686;53.084;8.872;2022-08-04T15:16:19;27.60;96.40
32187;DHT22;18686;53.084;8.872;2022-08-04T15:18:49;27.50;96.40
32187;DHT22;18686;53.084;8.872;2022-08-04T15:21:21;27.50;95.70
32187;DHT22;18686;53.084;8.872;2022-08-04T15:23:51;27.40;95.40
32187;DHT22;18686;53.084;8.872;2022-08-04T15:26:24;27.20;95.40
32187;DHT22;18686;53.084;8.872;2022-08-04T15:28:59;27.00;95.70
32187;DHT22;18686;53.084;8.872;2022-08-04T15:31:29;26.70;96.10
32187;DHT22;18686;53.084;8.872;2022-08-04T15:34:20;26.50;97.70
32187;DHT22;18686;53.084;8.872;2022-08-04T15:36:52;26.20;99.20
32187;DHT22;18686;53.084;8.872;2022-08-04T15:39:32;26.00;99.90
32187;DHT22;18686;53.084;8.872;2022-08-04T15:42:11;25.80;99.90
32187;DHT22;18686;53.084;8.872;2022-08-04T15:45:17;25.60;99.90
32187;DHT22;18686;53.084;8.872;2022-08-04T15:51:10;25.20;99.90
32187;DHT22;18686;53.084;8.872;2022-08-04T15:56:51;25.00;99.90
32187;DHT22;18686;53.084;8.872;2022-08-04T15:59:54;24.80;99.90
32187;DHT22;18686;53.084;8.872;2022-08-04T16:02:35;24.70;99.90
32187;DHT22;18686;53.084;8.872;2022-08-04T16:05:29;24.70;99.90
32187;DHT22;18686;53.084;8.872;2022-08-04T16:08:14;24.60;99.90
32187;DHT22;18686;53.084;8.872;2022-08-04T16:10:47;24.50;99.90
32187;DHT22;18686;53.084;8.872;2022-08-04T16:13:19;24.40;99.90
32187;DHT22;18686;53.084;8.872;2022-08-04T16:15:50;24.50;99.90
32187;DHT22;18686;53.084;8.872;2022-08-04T16:18:37;24.60;99.90
32187;DHT22;18686;53.084;8.872;2022-08-04T16:21:17;24.90;99.90
32187;DHT22;18686;53.084;8.872;2022-08-04T16:24:07;25.10;99.90
32187;DHT22;18686;53.084;8.872;2022-08-04T16:26:56;25.30;99.90
32187;DHT22;18686;53.084;8.872;2022-08-04T16:29:30;25.40;99.90
32187;DHT22;18686;53.084;8.872;2022-08-04T16:32:14;25.30;99.90
32187;DHT22;18686;53.084;8.872;2022-08-04T16:34:46;25.30;99.90
32187;DHT22;18686;53.084;8.872;2022-08-04T16:37:30;25.10;99.90
32187;DHT22;18686;53.084;8.872;2022-08-04T16:40:24;25.00;99.90
32187;DHT22;18686;53.084;8.872;2022-08-04T16:43:05;24.80;99.90
32187;DHT22;18686;53.084;8.872;2022-08-04T16:45:52;24.60;99.90
32187;DHT22;18686;53.084;8.872;2022-08-04T16:48:22;24.50;99.90
32187;DHT22;18686;53.084;8.872;2022-08-04T16:50:59;24.40;99.90
32187;DHT22;18686;53.084;8.872;2022-08-04T16:53:36;24.30;99.90
32187;DHT22;18686;53.084;8.872;2022-08-04T16:56:30;24.30;99.90
32187;DHT22;18686;53.084;8.872;2022-08-04T16:59:05;24.20;99.90
32187;DHT22;18686;53.084;8.872;2022-08-04T17:01:36;24.30;99.90
32187;DHT22;18686;53.084;8.872;2022-08-04T17:04:05;24.30;99.90
32187;DHT22;18686;53.084;8.872;2022-08-04T17:06:35;24.30;99.90
32187;DHT22;18686;53.084;8.872;2022-08-04T17:09:06;24.40;99.90
32187;DHT22;18686;53.084;8.872;2022-08-04T17:11:36;24.40;99.90
32187;DHT22;18686;53.084;8.872;2022-08-04T17:14:07;24.30;99.90
32187;DHT22;18686;53.084;8.872;2022-08-04T17:16:40;24.30;99.90
32187;DHT22;18686;53.084;8.872;2022-08-04T17:19:09;24.30;99.90
32187;DHT22;18686;53.084;8.872;2022-08-04T17:21:54;24.20;99.90
32187;DHT22;18686;53.084;8.872;2022-08-04T17:24:32;24.10;99.90
32187;DHT22;18686;53.084;8.872;2022-08-04T17:27:05;24.00;99.90
32187;DHT22;18686;53.084;8.872;2022-08-04T17:29:54;24.00;99.90